Time;durP1;ratioP1;P1;durP2;ratioP2;P2;SDS_P1;SDS_P2;PMS_P1;PMS_P2;Temp;Humidity;BMP_temperature;BMP_pressure;BME280_temperature;BME280_humidity;BME280_pressure;Samples;Min_cycle;Max_cycle;Signal;HPM_P1;HPM_P2
2022/01/21 00:00:57;;;;;;;28.08;6.03;;;3.20;99.90;;;;;;5093282;28;20019;-72
2022/01/21 00:03:23;;;;;;;23.13;5.43;;;3.10;99.90;;;;;;5093326;28;20149;-72
2022/01/21 00:05:49;;;;;;;19.52;4.15;;;3.10;99.90;;;;;;5094503;28;20499;-72
2022/01/21 00:08:15;;;;;;;23.67;4.95;;;3.10;99.90;;;;;;5094035;28;20028;-72
2022/01/21 00:10:41;;;;;;;14.27;2.88;;;3.00;99.90;;;;;;5078843;28;20041;-72
2022/01/21 00:13:17;;;;;;;23.92;3.38;;;2.90;99.90;;;;;;5073931;28;20485;-72
2022/01/21 00:15:42;;;;;;;17.63;3.40;;;2.90;99.90;;;;;;5074090;28;20031;-72
2022/01/21 00:18:10;;;;;;;27.20;3.35;;;2.90;99.90;;;;;;5073847;28;20025;-72
2022/01/21 00:31:33;;;;;;;13.57;3.15;;;2.80;99.90;;;;;;5092614;28;20028;-72
2022/01/21 00:33:59;;;;;;;16.27;3.65;;;2.80;99.90;;;;;;5094027;28;20032;-72
2022/01/21 00:36:25;;;;;;;21.70;4.07;;;2.80;99.90;;;;;;5092262;28;20166;-73
2022/01/21 00:38:54;;;;;;;22.05;3.63;;;2.90;99.90;;;;;;5092585;28;20395;-73
2022/01/21 00:41:23;;;;;;;14.85;3.28;;;2.90;99.90;;;;;;5092815;28;20408;-72
2022/01/21 00:43:49;;;;;;;14.90;3.33;;;2.80;99.90;;;;;;5093818;28;20115;-73
2022/01/21 00:46:19;;;;;;;28.40;4.47;;;2.70;99.90;;;;;;5092453;28;20124;-72
2022/01/21 00:48:45;;;;;;;20.23;4.10;;;2.50;99.90;;;;;;5093605;28;20036;-72
2022/01/21 00:51:11;;;;;;;21.65;4.18;;;2.40;99.90;;;;;;5091846;28;20050;-72
2022/01/21 00:53:37;;;;;;;35.00;5.10;;;2.30;99.90;;;;;;5092320;28;20032;-72
2022/01/21 00:56:02;;;;;;;16.42;3.58;;;2.30;99.90;;;;;;5093600;28;20111;-72
2022/01/21 00:58:28;;;;;;;24.85;3.83;;;2.40;99.90;;;;;;5092340;28;20070;-72
2022/01/21 01:00:54;;;;;;;20.65;3.97;;;2.50;99.90;;;;;;5092056;28;20074;-73
2022/01/21 01:03:20;;;;;;;21.55;3.65;;;2.50;99.90;;;;;;5092294;28;20016;-72
2022/01/21 01:05:47;;;;;;;20.27;3.08;;;2.70;99.90;;;;;;5091777;28;20035;-73
2022/01/21 01:08:13;;;;;;;21.25;3.30;;;2.80;99.90;;;;;;5093559;28;20024;-73
2022/01/21 01:21:32;;;;;;;24.98;3.05;;;2.90;99.90;;;;;;5072456;28;20048;-72
2022/01/21 01:29:13;;;;;;;12.48;3.30;;;3.10;99.90;;;;;;5091805;28;20032;-73
2022/01/21 01:31:39;;;;;;;18.42;3.08;;;3.30;99.90;;;;;;5093066;28;20040;-72
2022/01/21 01:34:05;;;;;;;13.77;2.35;;;3.40;99.90;;;;;;5091305;28;20032;-72
2022/01/21 01:36:31;;;;;;;13.05;2.05;;;3.60;99.90;;;;;;5091641;28;20024;-73
2022/01/21 01:39:08;;;;;;;11.93;2.38;;;3.70;99.90;;;;;;5093022;28;20032;-72
2022/01/21 01:41:39;;;;;;;17.45;2.85;;;3.60;99.90;;;;;;5091954;28;20119;-73
2022/01/21 01:49:38;;;;;;;16.17;2.22;;;3.50;99.90;;;;;;5072465;28;20082;-72
2022/01/21 01:52:10;;;;;;;12.68;2.08;;;3.40;99.90;;;;;;5072312;28;20400;-73
2022/01/21 01:54:39;;;;;;;12.15;2.10;;;3.40;99.90;;;;;;5076783;28;20031;-72
2022/01/21 01:57:06;;;;;;;17.85;2.33;;;3.30;99.90;;;;;;5076776;28;20029;-73
2022/01/21 01:59:32;;;;;;;12.68;2.58;;;3.30;99.90;;;;;;5075491;28;20028;-73
2022/01/21 02:02:07;;;;;;;14.80;2.40;;;3.30;99.90;;;;;;5075231;28;20028;-73
2022/01/21 02:04:33;;;;;;;11.35;2.03;;;3.30;99.90;;;;;;5074999;28;20059;-73
2022/01/21 02:06:59;;;;;;;11.18;2.00;;;3.30;99.90;;;;;;5076351;28;20024;-72
2022/01/21 02:09:27;;;;;;;11.95;2.08;;;3.40;99.90;;;;;;5063409;28;20016;-72
2022/01/21 02:11:53;;;;;;;24.73;3.15;;;3.50;99.90;;;;;;5095373;28;20399;-72
2022/01/21 02:14:25;;;;;;;12.18;2.40;;;3.50;99.90;;;;;;5096675;28;20095;-73
2022/01/21 02:22:13;;;;;;;15.77;1.73;;;3.50;99.90;;;;;;5095144;28;20032;-73
2022/01/21 02:27:31;;;;;;;17.73;2.17;;;3.60;99.90;;;;;;5060446;28;20089;-72
2022/01/21 02:30:02;;;;;;;13.93;2.00;;;3.60;99.90;;;;;;5096409;28;20056;-72
2022/01/21 02:32:31;;;;;;;12.20;1.80;;;3.70;99.90;;;;;;5094497;28;20028;-73
2022/01/21 02:34:56;;;;;;;13.40;1.90;;;3.70;99.90;;;;;;5078281;28;20032;-73
2022/01/21 02:37:23;;;;;;;15.27;3.05;;;3.80;99.90;;;;;;5095979;28;20050;-72
2022/01/21 02:39:50;;;;;;;14.68;2.25;;;3.80;99.90;;;;;;5095075;28;20387;-72
2022/01/21 02:42:16;;;;;;;12.25;1.92;;;3.90;99.90;;;;;;5094704;28;20055;-73
2022/01/21 02:44:43;;;;;;;14.43;2.35;;;3.90;99.90;;;;;;5094816;28;20020;-73
2022/01/21 02:47:09;;;;;;;16.75;3.03;;;3.90;99.90;;;;;;5094480;28;20036;-72
2022/01/21 02:49:41;;;;;;;13.13;1.90;;;3.90;99.90;;;;;;5094639;28;20020;-72
2022/01/21 02:52:07;;;;;;;12.43;2.17;;;4.00;99.90;;;;;;5094459;28;20039;-72
2022/01/21 02:54:34;;;;;;;13.95;2.80;;;3.90;99.90;;;;;;5094557;28;20049;-72
2022/01/21 02:57:03;;;;;;;14.45;1.90;;;3.90;99.90;;;;;;5094407;28;20476;-72
2022/01/21 02:59:28;;;;;;;16.60;2.22;;;3.80;99.90;;;;;;5094733;28;20039;-72
2022/01/21 03:01:54;;;;;;;18.23;2.58;;;3.80;99.90;;;;;;5094146;28;20016;-72
2022/01/21 03:05:08;;;;;;;17.85;2.80;;;3.80;99.90;;;;;;5094562;28;20027;-72
2022/01/21 03:07:09;;;;;;;18.27;2.33;;;3.80;99.90;;;;;;5089559;28;20036;-73
2022/01/21 03:09:35;;;;;;;15.75;2.60;;;3.70;99.90;;;;;;5088253;28;20346;-72
2022/01/21 03:12:01;;;;;;;23.67;3.10;;;3.60;99.90;;;;;;5075160;28;20032;-72
2022/01/21 03:14:27;;;;;;;12.70;2.15;;;3.60;99.90;;;;;;5074093;28;20123;-73
2022/01/21 03:16:53;;;;;;;14.48;2.28;;;3.60;99.90;;;;;;5073522;28;20112;-72
2022/01/21 03:19:19;;;;;;;13.48;1.88;;;3.50;99.90;;;;;;5073495;28;20135;-72
2022/01/21 03:21:44;;;;;;;13.73;1.80;;;3.60;99.90;;;;;;5075262;28;20041;-72
2022/01/21 03:24:10;;;;;;;13.55;2.00;;;3.70;99.90;;;;;;5073769;28;20020;-72
2022/01/21 03:26:36;;;;;;;12.35;1.92;;;3.60;99.90;;;;;;5082654;28;20111;-72
2022/01/21 03:29:04;;;;;;;16.05;2.20;;;3.50;99.90;;;;;;5093845;28;20027;-72
2022/01/21 03:31:34;;;;;;;17.13;2.85;;;3.40;99.90;;;;;;5093652;28;20097;-73
2022/01/21 03:34:03;;;;;;;17.02;2.45;;;3.40;99.90;;;;;;5077057;28;20021;-73
2022/01/21 03:36:31;;;;;;;11.10;2.03;;;3.40;99.90;;;;;;5093861;28;20037;-73
2022/01/21 03:38:58;;;;;;;16.23;2.55;;;3.40;99.90;;;;;;5093800;28;20148;-73
2022/01/21 03:41:24;;;;;;;13.05;2.13;;;3.40;99.90;;;;;;5093755;28;20056;-72
2022/01/21 03:43:51;;;;;;;21.17;2.53;;;3.60;99.90;;;;;;5093464;28;20031;-73
2022/01/21 03:46:17;;;;;;;8.55;1.40;;;3.70;99.90;;;;;;5093326;28;20032;-73
2022/01/21 03:48:48;;;;;;;17.42;2.58;;;3.90;99.90;;;;;;5093348;28;20024;-72
2022/01/21 03:51:17;;;;;;;13.23;3.17;;;4.00;99.90;;;;;;5093574;28;20392;-73
2022/01/21 03:53:44;;;;;;;14.82;2.20;;;4.00;99.90;;;;;;5093389;28;20032;-73
2022/01/21 03:56:10;;;;;;;18.33;2.65;;;3.90;99.90;;;;;;5094771;28;20051;-73
2022/01/21 03:58:35;;;;;;;11.15;2.10;;;3.80;99.90;;;;;;5093273;28;20024;-73
2022/01/21 04:01:04;;;;;;;14.43;2.17;;;3.70;99.90;;;;;;5093127;28;20027;-73
2022/01/21 04:03:30;;;;;;;17.90;2.38;;;3.80;99.90;;;;;;5076467;28;20020;-73
2022/01/21 04:05:56;;;;;;;14.82;3.78;;;3.70;99.90;;;;;;5076494;28;20035;-73
2022/01/21 04:08:23;;;;;;;14.52;2.35;;;3.50;99.90;;;;;;5092913;28;20024;-73
2022/01/21 04:10:58;;;;;;;13.05;2.67;;;3.50;99.90;;;;;;5075093;28;20036;-73
2022/01/21 04:13:26;;;;;;;24.83;3.42;;;3.60;99.90;;;;;;5072686;28;20071;-73
2022/01/21 04:15:57;;;;;;;19.08;3.38;;;3.50;99.90;;;;;;5072472;28;20029;-73
2022/01/21 04:18:24;;;;;;;13.05;2.67;;;3.40;99.90;;;;;;5089454;28;20086;-73
2022/01/21 04:20:54;;;;;;;20.83;4.55;;;3.30;99.90;;;;;;5072627;28;20119;-72
2022/01/21 04:23:22;;;;;;;23.02;3.83;;;3.20;99.90;;;;;;5072365;28;20391;-72
2022/01/21 04:25:48;;;;;;;19.27;3.55;;;3.10;99.90;;;;;;5074600;28;20090;-72
2022/01/21 04:28:15;;;;;;;21.20;3.20;;;3.20;99.90;;;;;;5092508;28;20111;-72
2022/01/21 04:30:41;;;;;;;23.48;3.47;;;3.10;99.90;;;;;;5076035;28;20111;-73
2022/01/21 04:33:07;;;;;;;21.80;3.10;;;3.10;99.90;;;;;;5092604;28;20144;-72
2022/01/21 04:35:34;;;;;;;26.45;3.30;;;3.10;99.90;;;;;;5092490;28;20024;-72
2022/01/21 04:38:04;;;;;;;17.15;3.00;;;3.20;99.90;;;;;;5092674;28;20135;-73
2022/01/21 04:40:35;;;;;;;25.33;3.22;;;3.30;99.90;;;;;;5092548;28;20021;-72
2022/01/21 04:48:36;;;;;;;13.18;2.50;;;3.50;99.90;;;;;;5092164;28;20377;-73
2022/01/21 04:51:14;;;;;;;20.95;3.35;;;3.60;99.90;;;;;;5092476;28;20020;-72
2022/01/21 04:53:43;;;;;;;26.98;3.80;;;3.50;99.90;;;;;;5075374;28;20036;-72
2022/01/21 04:56:15;;;;;;;17.15;2.88;;;3.70;99.90;;;;;;5092208;28;20024;-73
2022/01/21 04:58:42;;;;;;;20.00;3.35;;;3.80;99.90;;;;;;5093185;28;20027;-72
2022/01/21 05:01:08;;;;;;;16.55;3.00;;;3.90;99.90;;;;;;5091986;28;20062;-73
2022/01/21 05:03:37;;;;;;;15.88;3.47;;;4.00;99.90;;;;;;5092096;28;20020;-73
2022/01/21 05:06:03;;;;;;;15.68;3.15;;;3.80;99.90;;;;;;5092008;28;20067;-72
2022/01/21 05:08:39;;;;;;;19.65;3.97;;;3.80;99.90;;;;;;5092120;28;20031;-72
2022/01/21 05:11:05;;;;;;;15.18;4.05;;;3.80;99.90;;;;;;5073206;28;20021;-72
2022/01/21 05:13:38;;;;;;;26.80;5.13;;;4.00;99.90;;;;;;5071359;28;20599;-72
2022/01/21 05:16:30;;;;;;;18.38;5.35;;;4.00;99.90;;;;;;5071720;28;20020;-73
2022/01/21 05:19:03;;;;;;;21.75;5.82;;;3.70;99.90;;;;;;5055596;28;20056;-73
2022/01/21 05:21:49;;;;;;;17.98;5.28;;;3.30;99.90;;;;;;5072915;28;20429;-72
2022/01/21 05:24:20;;;;;;;;;;;3.20;99.90;;;;;;5072159;28;20060;-73
2022/01/21 05:26:53;;;;;;;16.27;5.05;;;3.00;99.90;;;;;;5080879;28;19911;-73
2022/01/21 05:29:29;;;;;;;20.85;5.40;;;2.90;99.90;;;;;;5091856;28;20085;-73
2022/01/21 05:32:04;;;;;;;19.75;4.65;;;3.00;99.90;;;;;;5091675;28;20146;-73
2022/01/21 05:34:36;;;;;;;19.63;4.13;;;3.00;99.90;;;;;;5091589;28;20553;-73
2022/01/21 05:37:22;;;;;;;16.95;3.90;;;3.00;99.90;;;;;;5061462;28;20043;-73
2022/01/21 05:40:19;;;;;;;24.02;3.60;;;3.10;99.90;;;;;;5078744;28;20541;-73
2022/01/21 05:42:59;;;;;;;21.95;3.28;;;3.10;99.90;;;;;;5091686;28;20111;-73
2022/01/21 05:49:02;;;;;;;14.18;3.72;;;3.10;99.90;;;;;;5083459;28;20496;-73
2022/01/21 05:51:38;;;;;;;15.82;4.20;;;3.20;99.90;;;;;;5093030;28;20050;-73
2022/01/21 05:54:25;;;;;;;19.92;4.60;;;3.20;99.90;;;;;;5077098;28;20396;-73
2022/01/21 05:57:13;;;;;;;16.33;3.13;;;3.20;99.90;;;;;;5092212;28;20032;-72
2022/01/21 05:59:42;;;;;;;11.25;2.55;;;3.20;99.90;;;;;;5091866;28;20472;-73
2022/01/21 06:02:10;;;;;;;20.55;4.22;;;3.00;99.90;;;;;;5091502;28;20373;-73
2022/01/21 06:04:38;;;;;;;12.27;2.70;;;3.00;99.90;;;;;;5091966;28;20020;-73
2022/01/21 06:07:08;;;;;;;13.63;2.92;;;2.90;99.90;;;;;;5091363;28;20026;-73
2022/01/21 06:09:34;;;;;;;12.10;3.17;;;2.90;99.90;;;;;;5086304;28;20017;-73
2022/01/21 06:11:59;;;;;;;18.00;4.65;;;2.80;99.90;;;;;;5070958;28;20443;-72
2022/01/21 06:14:25;;;;;;;11.57;3.17;;;2.80;99.90;;;;;;5072338;28;20119;-73
2022/01/21 06:16:52;;;;;;;15.93;3.08;;;2.90;99.90;;;;;;5070950;28;20392;-73
2022/01/21 06:19:18;;;;;;;10.02;2.28;;;2.80;99.90;;;;;;5072182;28;20109;-73
2022/01/21 06:21:44;;;;;;;10.55;2.38;;;2.70;99.90;;;;;;5072193;28;20032;-73
2022/01/21 06:24:10;;;;;;;12.55;3.20;;;2.80;99.90;;;;;;5070827;28;20498;-73
2022/01/21 06:26:36;;;;;;;11.93;2.60;;;2.90;99.90;;;;;;5080746;28;20021;-73
2022/01/21 06:29:03;;;;;;;13.50;3.60;;;2.90;99.90;;;;;;5092394;28;20036;-73
2022/01/21 06:31:28;;;;;;;14.38;2.65;;;3.20;99.90;;;;;;5092116;28;20465;-72
2022/01/21 06:33:54;;;;;;;24.30;3.38;;;3.20;99.90;;;;;;5092516;28;20038;-71
2022/01/21 06:36:20;;;;;;;15.52;2.90;;;3.20;99.90;;;;;;5092200;28;20024;-71
2022/01/21 06:38:46;;;;;;;16.52;3.63;;;3.40;99.90;;;;;;5094619;28;20100;-73
2022/01/21 06:41:12;;;;;;;15.50;5.97;;;3.50;99.90;;;;;;5094451;28;20035;-72
2022/01/21 06:43:38;;;;;;;14.23;3.30;;;3.50;99.90;;;;;;5096272;28;20106;-72
2022/01/21 06:46:03;;;;;;;15.35;3.00;;;3.60;99.90;;;;;;5094817;28;20032;-71
2022/01/21 06:48:29;;;;;;;8.93;3.22;;;3.60;99.90;;;;;;5094785;28;20028;-74
2022/01/21 06:50:55;;;;;;;11.35;3.42;;;3.70;99.90;;;;;;5095853;28;20082;-73
2022/01/21 06:53:21;;;;;;;11.18;3.20;;;3.60;99.90;;;;;;5095763;28;20371;-73
2022/01/21 06:55:47;;;;;;;7.80;2.67;;;3.30;99.90;;;;;;5095835;28;20085;-73
2022/01/21 06:58:13;;;;;;;12.55;2.83;;;3.20;99.90;;;;;;5080223;28;20468;-73
2022/01/21 07:00:39;;;;;;;12.93;2.72;;;3.00;99.90;;;;;;5075561;28;20027;-73
2022/01/21 07:03:05;;;;;;;12.43;2.55;;;2.90;99.90;;;;;;5075540;28;20059;-73
2022/01/21 07:05:31;;;;;;;9.68;2.70;;;2.90;99.90;;;;;;5075382;28;20064;-72
2022/01/21 07:08:00;;;;;;;15.32;3.30;;;2.80;99.90;;;;;;5075100;28;20388;-72
2022/01/21 07:10:27;;;;;;;15.55;3.90;;;2.70;99.90;;;;;;5088678;28;20036;-72
2022/01/21 07:12:53;;;;;;;17.17;4.63;;;2.70;99.90;;;;;;5095389;28;20101;-72
2022/01/21 07:15:19;;;;;;;17.10;3.10;;;2.70;99.90;;;;;;5095434;28;20032;-72
2022/01/21 07:17:48;;;;;;;15.35;3.30;;;2.70;99.90;;;;;;5095308;28;20081;-72
2022/01/21 07:20:15;;;;;;;20.00;3.60;;;2.70;99.90;;;;;;5094944;28;20036;-72
2022/01/21 07:22:41;;;;;;;13.68;3.45;;;2.70;99.90;;;;;;5093674;28;20047;-71
2022/01/21 07:25:07;;;;;;;16.55;3.33;;;2.70;99.90;;;;;;5095356;28;20472;-72
2022/01/21 07:27:33;;;;;;;15.95;3.55;;;2.70;99.90;;;;;;5093945;28;20032;-72
2022/01/21 07:29:58;;;;;;;21.75;6.03;;;2.70;99.90;;;;;;5095174;28;20032;-72
2022/01/21 07:32:25;;;;;;;24.48;4.50;;;2.90;99.90;;;;;;5094968;28;20028;-72
2022/01/21 07:34:50;;;;;;;17.10;4.55;;;3.10;99.90;;;;;;5095000;28;20085;-72
2022/01/21 07:37:16;;;;;;;23.50;5.10;;;3.20;99.90;;;;;;5094644;28;20423;-72
2022/01/21 07:39:42;;;;;;;21.48;5.38;;;3.30;99.90;;;;;;5095066;28;20062;-72
2022/01/21 07:42:08;;;;;;;15.13;4.25;;;3.10;99.90;;;;;;5091716;28;20086;-72
2022/01/21 07:44:35;;;;;;;31.00;5.93;;;3.00;99.90;;;;;;5087932;28;20032;-71
2022/01/21 07:47:01;;;;;;;18.58;4.95;;;3.10;99.90;;;;;;5094546;28;20059;-73
2022/01/21 07:49:26;;;;;;;20.20;5.20;;;3.30;99.90;;;;;;5093677;28;20103;-72
2022/01/21 07:51:52;;;;;;;20.45;4.97;;;3.30;99.90;;;;;;5093606;28;20463;-72
2022/01/21 07:54:18;;;;;;;22.50;5.53;;;3.30;99.90;;;;;;5094365;28;20032;-73
2022/01/21 07:56:44;;;;;;;13.20;4.15;;;3.40;99.90;;;;;;5094377;28;20038;-72
2022/01/21 07:59:12;;;;;;;17.30;4.45;;;3.50;99.90;;;;;;5094369;28;20024;-72
2022/01/21 08:01:39;;;;;;;14.15;5.30;;;3.60;99.90;;;;;;5094278;28;20020;-73
2022/01/21 08:04:05;;;;;;;18.45;5.47;;;3.60;99.90;;;;;;5093954;28;20043;-72
2022/01/21 08:06:31;;;;;;;15.88;4.07;;;3.50;99.90;;;;;;5093757;28;20024;-73
2022/01/21 08:08:57;;;;;;;20.10;3.83;;;3.50;99.90;;;;;;5093931;28;20148;-71
2022/01/21 08:11:23;;;;;;;17.90;5.13;;;3.60;99.90;;;;;;5093968;28;20477;-71
2022/01/21 08:13:50;;;;;;;12.63;4.32;;;3.40;99.90;;;;;;5093828;28;20169;-71
2022/01/21 08:16:16;;;;;;;21.38;6.25;;;3.40;99.90;;;;;;5093805;28;20469;-72
2022/01/21 08:18:42;;;;;;;18.95;5.40;;;3.40;99.90;;;;;;5093764;28;20541;-71
2022/01/21 08:21:08;;;;;;;20.52;4.88;;;3.50;99.90;;;;;;5093423;28;20107;-72
2022/01/21 08:23:34;;;;;;;25.05;5.03;;;3.30;99.90;;;;;;5092485;28;20047;-71
2022/01/21 08:26:01;;;;;;;17.77;3.75;;;3.10;99.90;;;;;;5093607;28;20016;-71
2022/01/21 08:28:26;;;;;;;13.63;3.28;;;3.00;99.90;;;;;;5093629;28;20024;-71
2022/01/21 08:30:52;;;;;;;15.50;3.33;;;3.00;99.90;;;;;;5092378;28;20491;-71
2022/01/21 08:33:18;;;;;;;16.75;3.40;;;3.10;99.90;;;;;;5092870;28;20073;-72
2022/01/21 08:35:44;;;;;;;21.92;4.70;;;3.20;99.90;;;;;;5091355;28;20031;-71
2022/01/21 08:38:09;;;;;;;14.63;3.92;;;3.20;99.90;;;;;;5093042;28;20032;-71
2022/01/21 08:40:35;;;;;;;18.05;3.83;;;3.30;99.90;;;;;;5090769;28;20449;-72
2022/01/21 08:43:01;;;;;;;16.38;3.70;;;3.50;99.90;;;;;;5092971;28;20057;-72
2022/01/21 08:45:29;;;;;;;11.98;3.67;;;3.60;99.90;;;;;;5075388;28;20027;-72
2022/01/21 08:47:55;;;;;;;16.45;2.97;;;3.60;99.90;;;;;;5093398;28;20035;-75
2022/01/21 08:50:22;;;;;;;14.10;3.85;;;3.70;99.90;;;;;;5092440;28;20032;-75
2022/01/21 08:52:49;;;;;;;22.95;4.28;;;3.70;99.90;;;;;;5092217;28;20377;-75
2022/01/21 08:55:18;;;;;;;16.90;5.07;;;3.80;99.90;;;;;;5092769;28;20036;-76
2022/01/21 08:57:46;;;;;;;16.50;3.72;;;3.90;99.90;;;;;;5093086;28;20024;-74
2022/01/21 09:00:18;;;;;;;16.63;4.35;;;3.90;99.90;;;;;;5092804;28;20036;-74
2022/01/21 09:02:44;;;;;;;17.65;3.85;;;4.20;99.90;;;;;;5092172;28;20031;-74
2022/01/21 09:05:10;;;;;;;19.35;3.88;;;4.50;99.90;;;;;;5093057;28;20461;-74
2022/01/21 09:07:36;;;;;;;15.45;2.85;;;4.70;99.90;;;;;;5093348;28;20030;-73
2022/01/21 09:10:04;;;;;;;16.75;2.90;;;5.00;99.90;;;;;;5083041;28;20106;-73
2022/01/21 09:12:30;;;;;;;20.55;3.83;;;5.20;99.90;;;;;;5089214;28;20567;-74
2022/01/21 09:14:56;;;;;;;17.85;2.97;;;5.50;99.90;;;;;;5092246;28;20028;-74
2022/01/21 09:17:21;;;;;;;17.88;3.15;;;5.70;99.90;;;;;;5089558;28;20030;-74
2022/01/21 09:19:47;;;;;;;11.15;2.30;;;5.90;99.90;;;;;;5092410;28;20032;-75
2022/01/21 09:22:13;;;;;;;9.27;2.30;;;6.20;99.90;;;;;;5092304;28;20052;-75
2022/01/21 09:24:39;;;;;;;16.60;2.75;;;6.30;99.90;;;;;;5093009;28;20034;-74
2022/01/21 09:27:05;;;;;;;16.25;2.42;;;6.50;99.90;;;;;;5093102;28;20036;-75
2022/01/21 09:29:32;;;;;;;13.43;2.13;;;6.90;99.90;;;;;;5093046;28;20024;-74
2022/01/21 09:31:59;;;;;;;13.45;2.75;;;7.40;99.90;;;;;;5092808;28;20078;-74
2022/01/21 09:34:27;;;;;;;15.63;2.80;;;7.80;99.90;;;;;;5092828;28;20024;-74
2022/01/21 09:36:54;;;;;;;13.93;2.50;;;7.60;99.90;;;;;;5092899;28;20067;-75
2022/01/21 09:39:20;;;;;;;18.00;2.55;;;8.00;99.90;;;;;;5091826;28;20035;-75
2022/01/21 09:41:48;;;;;;;13.68;2.90;;;7.70;99.90;;;;;;5093110;28;20402;-75
2022/01/21 09:44:18;;;;;;;19.30;3.58;;;8.10;99.90;;;;;;5092863;28;20027;-74
2022/01/21 09:46:47;;;;;;;15.75;2.10;;;7.70;99.90;;;;;;5092822;28;20084;-73
2022/01/21 09:49:26;;;;;;;10.80;1.85;;;7.80;99.90;;;;;;5092468;28;20077;-72
2022/01/21 09:52:04;;;;;;;15.63;2.83;;;7.50;99.90;;;;;;5092849;28;20048;-74
2022/01/21 09:54:33;;;;;;;14.32;3.00;;;7.10;99.90;;;;;;5092781;28;20123;-73
2022/01/21 09:57:00;;;;;;;13.00;3.03;;;6.80;99.90;;;;;;5092684;28;20043;-74
2022/01/21 09:59:28;;;;;;;17.48;3.42;;;6.70;99.90;;;;;;5092870;28;20024;-75
2022/01/21 10:01:57;;;;;;;14.48;3.50;;;6.80;99.90;;;;;;5092467;28;20028;-75
2022/01/21 10:04:28;;;;;;;15.88;3.92;;;6.80;99.90;;;;;;5092626;28;20482;-74
2022/01/21 10:06:55;;;;;;;19.50;5.25;;;6.80;99.90;;;;;;5092879;28;20190;-74
2022/01/21 10:09:22;;;;;;;15.68;3.78;;;6.60;99.90;;;;;;5087607;28;20059;-74
2022/01/21 10:11:51;;;;;;;14.20;3.85;;;6.60;99.90;;;;;;5072605;28;20047;-73
2022/01/21 10:14:21;;;;;;;11.98;2.55;;;6.70;99.90;;;;;;5074799;28;20043;-74
2022/01/21 10:16:48;;;;;;;18.23;3.10;;;6.70;99.90;;;;;;5076034;28;20082;-75
2022/01/21 10:19:23;;;;;;;15.05;2.33;;;6.80;99.90;;;;;;5075298;28;20103;-74
2022/01/21 10:21:58;;;;;;;16.17;2.92;;;6.70;99.90;;;;;;5076203;28;20060;-75
2022/01/21 10:24:24;;;;;;;19.48;3.22;;;6.70;99.90;;;;;;5092095;28;20025;-75
2022/01/21 10:26:53;;;;;;;18.77;2.58;;;6.80;99.90;;;;;;5085257;28;20107;-75
2022/01/21 10:29:20;;;;;;;21.42;3.15;;;6.90;99.90;;;;;;5095238;28;20120;-75
2022/01/21 10:31:59;;;;;;;19.73;3.03;;;6.80;99.90;;;;;;5095947;28;20058;-75
2022/01/21 10:34:38;;;;;;;14.50;2.72;;;6.90;99.90;;;;;;5094927;28;20038;-74
2022/01/21 10:37:22;;;;;;;21.83;2.97;;;6.90;99.90;;;;;;5096290;28;20097;-75
2022/01/21 10:40:08;;;;;;;16.20;2.47;;;6.90;99.90;;;;;;5096329;28;20039;-75
2022/01/21 10:42:35;;;;;;;16.55;2.35;;;7.00;99.90;;;;;;5095794;28;20024;-75
2022/01/21 10:45:03;;;;;;;11.18;2.05;;;7.10;99.90;;;;;;5094902;28;20128;-74
2022/01/21 10:47:38;;;;;;;16.85;2.83;;;7.20;99.90;;;;;;5094967;28;20481;-75
2022/01/21 10:50:13;;;;;;;17.90;2.35;;;7.20;99.90;;;;;;5094541;28;20066;-74
2022/01/21 10:52:45;;;;;;;14.70;2.88;;;7.00;99.90;;;;;;5099119;28;20083;-74
2022/01/21 10:55:26;;;;;;;17.52;3.97;;;7.10;99.90;;;;;;5095954;28;20085;-74
2022/01/21 10:58:15;;;;;;;24.15;2.97;;;7.00;99.90;;;;;;5095710;28;20472;-73
2022/01/21 11:01:02;;;;;;;12.30;2.63;;;7.00;99.90;;;;;;5095624;28;20111;-75
2022/01/21 11:03:29;;;;;;;16.75;2.90;;;7.10;99.90;;;;;;5095370;28;20034;-75
2022/01/21 11:06:14;;;;;;;21.05;2.20;;;7.10;99.90;;;;;;5095571;28;20093;-75
2022/01/21 11:08:40;;;;;;;17.58;2.78;;;7.40;99.90;;;;;;5095266;28;20036;-76
2022/01/21 11:11:07;;;;;;;28.15;3.33;;;7.40;99.90;;;;;;5076561;28;20078;-75
2022/01/21 11:13:36;;;;;;;27.45;3.67;;;7.50;99.90;;;;;;5075094;28;20041;-74
2022/01/21 11:16:12;;;;;;;16.70;2.92;;;7.50;99.90;;;;;;5074716;28;20154;-75
2022/01/21 11:19:05;;;;;;;21.63;2.97;;;7.40;99.90;;;;;;5074842;28;20044;-75
2022/01/21 11:21:45;;;;;;;20.50;3.53;;;7.30;99.90;;;;;;5074825;28;20093;-74
2022/01/21 11:24:14;;;;;;;18.65;3.30;;;7.20;99.90;;;;;;5056674;28;20071;-74
2022/01/21 11:26:41;;;;;;;18.88;3.30;;;7.30;99.90;;;;;;5085832;28;20035;-74
2022/01/21 11:29:07;;;;;;;24.80;3.75;;;7.30;99.90;;;;;;5094566;28;20063;-74
2022/01/21 11:31:33;;;;;;;18.15;3.38;;;7.30;99.90;;;;;;5094991;28;20491;-79
2022/01/21 11:34:00;;;;;;;21.73;3.63;;;7.20;99.90;;;;;;5093591;28;20247;-77
2022/01/21 11:36:26;;;;;;;20.40;4.43;;;7.20;99.90;;;;;;5094825;28;20028;-74
2022/01/21 11:38:55;;;;;;;18.92;4.28;;;7.20;99.90;;;;;;5094781;28;20035;-75
2022/01/21 11:41:24;;;;;;;20.80;4.03;;;7.30;99.90;;;;;;5094830;28;20028;-75
2022/01/21 11:43:52;;;;;;;23.63;4.53;;;7.30;99.90;;;;;;5094705;28;20032;-74
2022/01/21 11:48:52;;;;;;;20.90;3.50;;;7.40;99.90;;;;;;5093352;28;20020;-75
2022/01/21 11:51:31;;;;;;;18.23;4.20;;;7.40;99.90;;;;;;5094665;28;20093;-74
2022/01/21 11:54:01;;;;;;;20.00;4.05;;;7.40;99.90;;;;;;5094675;28;20102;-74
2022/01/21 11:57:05;;;;;;;19.85;4.20;;;7.30;99.90;;;;;;5094469;28;20106;-74
2022/01/21 11:59:36;;;;;;;12.00;3.15;;;7.30;99.90;;;;;;5074163;28;20491;-74
2022/01/21 12:02:24;;;;;;;17.23;2.95;;;7.30;99.90;;;;;;5092661;28;20020;-74
2022/01/21 12:05:09;;;;;;;15.73;3.13;;;7.40;99.90;;;;;;5094415;28;20038;-74
2022/01/21 12:07:41;;;;;;;18.23;3.03;;;7.60;99.90;;;;;;5075995;28;20020;-73
2022/01/21 12:10:10;;;;;;;10.43;2.03;;;7.70;99.90;;;;;;5092894;28;20040;-73
2022/01/21 12:12:50;;;;;;;13.88;2.58;;;7.80;99.90;;;;;;5094207;28;20054;-74
2022/01/21 12:16:26;;;;;;;20.73;3.00;;;7.80;99.90;;;;;;5094379;28;20103;-74
2022/01/21 12:21:21;;;;;;;11.35;2.78;;;7.70;99.90;;;;;;5095709;28;20032;-74
2022/01/21 12:23:47;;;;;;;16.25;3.03;;;7.80;99.90;;;;;;5096853;28;20020;-74
2022/01/21 12:26:21;;;;;;;15.27;4.38;;;7.90;99.90;;;;;;5097424;28;20024;-74
2022/01/21 12:28:58;;;;;;;14.82;2.03;;;7.80;99.90;;;;;;5094621;28;20110;-74
2022/01/21 12:31:45;;;;;;;9.60;2.22;;;7.90;99.90;;;;;;5094039;28;20408;-74
2022/01/21 12:34:20;;;;;;;11.52;1.45;;;7.70;99.90;;;;;;5094151;28;20048;-74
2022/01/21 12:36:58;;;;;;;13.55;1.83;;;7.50;99.90;;;;;;5095158;28;20028;-74
2022/01/21 12:39:41;;;;;;;7.88;2.00;;;7.60;99.90;;;;;;5094306;28;20115;-74
2022/01/21 12:42:23;;;;;;;10.75;1.77;;;7.70;99.90;;;;;;5093880;28;20032;-74
2022/01/21 12:44:57;;;;;;;11.85;1.67;;;7.60;99.90;;;;;;5093743;28;20060;-75
2022/01/21 12:47:44;;;;;;;16.65;2.38;;;7.60;99.90;;;;;;5093656;28;20081;-74
2022/01/21 12:50:32;;;;;;;12.85;2.60;;;7.50;99.90;;;;;;5093830;28;20107;-73
2022/01/21 12:53:23;;;;;;;16.42;2.58;;;7.30;99.90;;;;;;5092148;28;20043;-74
2022/01/21 12:55:55;;;;;;;19.00;2.72;;;7.40;99.90;;;;;;5093211;28;20043;-75
2022/01/21 12:58:28;;;;;;;17.92;3.83;;;7.50;99.90;;;;;;5093540;28;20399;-74
2022/01/21 13:01:05;;;;;;;18.45;2.83;;;7.50;99.90;;;;;;5093515;28;20081;-74
2022/01/21 13:03:46;;;;;;;21.52;3.35;;;7.50;99.90;;;;;;5092161;28;20115;-74
2022/01/21 13:06:25;;;;;;;26.45;4.30;;;7.70;99.90;;;;;;5093328;28;20028;-73
2022/01/21 13:09:08;;;;;;;31.23;5.10;;;7.60;99.90;;;;;;5092024;28;20032;-74
2022/01/21 13:11:39;;;;;;;21.10;3.92;;;7.70;99.90;;;;;;5071441;28;20457;-75
2022/01/21 13:17:08;;;;;;;15.20;3.60;;;7.50;99.90;;;;;;5073072;28;20025;-74
2022/01/21 13:19:50;;;;;;;18.75;3.85;;;7.50;99.90;;;;;;5072503;28;20028;-74
2022/01/21 13:22:20;;;;;;;14.38;3.22;;;7.50;99.90;;;;;;5071686;28;20389;-74
2022/01/21 13:25:06;;;;;;;16.92;3.45;;;7.50;99.90;;;;;;5072651;28;20082;-74
2022/01/21 13:27:34;;;;;;;24.75;3.55;;;7.50;99.90;;;;;;5087865;28;20074;-74
2022/01/21 13:30:07;;;;;;;17.98;3.65;;;7.50;99.90;;;;;;5093025;28;20382;-75
2022/01/21 13:32:33;;;;;;;21.58;3.35;;;7.60;99.90;;;;;;5092742;28;20028;-75
2022/01/21 13:35:09;;;;;;;16.95;3.25;;;7.70;99.90;;;;;;5091731;28;20423;-74
2022/01/21 13:37:36;;;;;;;23.63;4.38;;;7.80;99.90;;;;;;5093322;28;20027;-74
2022/01/21 13:40:05;;;;;;;22.95;4.13;;;8.10;99.90;;;;;;5092556;28;20470;-74
2022/01/21 13:42:32;;;;;;;21.83;3.72;;;8.40;99.90;;;;;;5091517;28;20073;-75
2022/01/21 13:45:04;;;;;;;25.52;3.75;;;8.40;99.90;;;;;;5092837;28;20042;-75
2022/01/21 13:47:36;;;;;;;27.90;3.10;;;8.40;99.90;;;;;;5092378;28;20043;-74
2022/01/21 13:50:17;;;;;;;28.63;4.13;;;8.20;99.90;;;;;;5092792;28;20107;-75
2022/01/21 13:52:48;;;;;;;27.57;3.87;;;7.90;99.90;;;;;;5091670;28;20044;-74
2022/01/21 13:55:43;;;;;;;23.25;4.03;;;8.00;99.90;;;;;;5091202;28;20035;-75
2022/01/21 13:58:23;;;;;;;19.25;3.33;;;8.00;99.90;;;;;;5092711;28;20526;-74
2022/01/21 14:00:50;;;;;;;21.38;4.15;;;8.00;99.90;;;;;;5092664;28;20090;-74